sensor_id;sensor_type;location;lat;lon;timestamp;temperature;humidity
62991;DHT22;49084;48.204;16.202;2023-08-06T00:01:16;15.20;99.90
62991;DHT22;49084;48.204;16.202;2023-08-06T00:03:41;15.20;99.90
62991;DHT22;49084;48.204;16.202;2023-08-06T00:06:07;15.20;99.90
62991;DHT22;49084;48.204;16.202;2023-08-06T00:08:32;15.20;99.90
62991;DHT22;49084;48.204;16.202;2023-08-06T00:10:58;15.20;99.90
62991;DHT22;49084;48.204;16.202;2023-08-06T00:13:24;15.20;99.90
62991;DHT22;49084;48.204;16.202;2023-08-06T00:15:49;15.20;99.90
62991;DHT22;49084;48.204;16.202;2023-08-06T00:18:15;15.20;99.90
62991;DHT22;49084;48.204;16.202;2023-08-06T00:20:40;15.20;99.90
62991;DHT22;49084;48.204;16.202;2023-08-06T00:23:07;15.10;99.90
62991;DHT22;49084;48.204;16.202;2023-08-06T00:25:33;15.10;99.90
62991;DHT22;49084;48.204;16.202;2023-08-06T00:27:59;15.10;99.90
62991;DHT22;49084;48.204;16.202;2023-08-06T00:30:24;15.10;99.90
62991;DHT22;49084;48.204;16.202;2023-08-06T00:32:50;15.10;99.90
62991;DHT22;49084;48.204;16.202;2023-08-06T00:35:15;15.10;99.90
62991;DHT22;49084;48.204;16.202;2023-08-06T00:37:41;15.10;99.90
62991;DHT22;49084;48.204;16.202;2023-08-06T00:40:07;15.10;99.90
62991;DHT22;49084;48.204;16.202;2023-08-06T00:42:34;15.10;99.90
62991;DHT22;49084;48.204;16.202;2023-08-06T00:45:00;15.10;99.90
62991;DHT22;49084;48.204;16.202;2023-08-06T00:47:26;15.10;99.90
62991;DHT22;49084;48.204;16.202;2023-08-06T00:49:52;15.10;99.90
62991;DHT22;49084;48.204;16.202;2023-08-06T00:52:17;15.10;99.90
62991;DHT22;49084;48.204;16.202;2023-08-06T00:54:43;15.10;99.90
62991;DHT22;49084;48.204;16.202;2023-08-06T00:57:09;15.00;99.90
62991;DHT22;49084;48.204;16.202;2023-08-06T00:59:35;15.10;99.90
62991;DHT22;49084;48.204;16.202;2023-08-06T01:02:01;15.00;99.90
62991;DHT22;49084;48.204;16.202;2023-08-06T01:04:27;15.00;99.90
62991;DHT22;49084;48.204;16.202;2023-08-06T01:07:19;15.00;99.90
62991;DHT22;49084;48.204;16.202;2023-08-06T01:13:00;15.00;99.90
62991;DHT22;49084;48.204;16.202;2023-08-06T01:15:32;15.00;99.90
62991;DHT22;49084;48.204;16.202;2023-08-06T01:17:58;14.90;99.90
62991;DHT22;49084;48.204;16.202;2023-08-06T01:20:29;14.90;99.90
62991;DHT22;49084;48.204;16.202;2023-08-06T01:22:55;14.90;99.90
62991;DHT22;49084;48.204;16.202;2023-08-06T01:25:20;14.90;99.90
62991;DHT22;49084;48.204;16.202;2023-08-06T01:27:48;14.90;99.90
62991;DHT22;49084;48.204;16.202;2023-08-06T01:30:23;14.90;99.90
62991;DHT22;49084;48.204;16.202;2023-08-06T01:32:54;14.90;99.90
62991;DHT22;49084;48.204;16.202;2023-08-06T01:35:21;14.90;99.90
62991;DHT22;49084;48.204;16.202;2023-08-06T01:37:48;14.90;99.90
62991;DHT22;49084;48.204;16.202;2023-08-06T01:40:14;14.90;99.90
62991;DHT22;49084;48.204;16.202;2023-08-06T01:42:40;14.90;99.90
62991;DHT22;49084;48.204;16.202;2023-08-06T01:45:07;14.90;99.90
62991;DHT22;49084;48.204;16.202;2023-08-06T01:47:33;14.90;99.90
62991;DHT22;49084;48.204;16.202;2023-08-06T01:49:59;14.90;99.90
62991;DHT22;49084;48.204;16.202;2023-08-06T01:52:24;14.90;99.90
62991;DHT22;49084;48.204;16.202;2023-08-06T01:54:50;14.80;99.90
62991;DHT22;49084;48.204;16.202;2023-08-06T01:57:15;14.90;99.90
62991;DHT22;49084;48.204;16.202;2023-08-06T01:59:41;14.80;99.90
62991;DHT22;49084;48.204;16.202;2023-08-06T02:02:07;14.80;99.90
62991;DHT22;49084;48.204;16.202;2023-08-06T02:04:32;14.80;99.90
62991;DHT22;49084;48.204;16.202;2023-08-06T02:06:58;14.80;99.90
62991;DHT22;49084;48.204;16.202;2023-08-06T02:09:24;14.80;99.90
62991;DHT22;49084;48.204;16.202;2023-08-06T02:11:49;14.80;99.90
62991;DHT22;49084;48.204;16.202;2023-08-06T02:14:15;14.80;99.90
62991;DHT22;49084;48.204;16.202;2023-08-06T02:16:40;14.80;99.90
62991;DHT22;49084;48.204;16.202;2023-08-06T02:19:06;14.80;99.90
62991;DHT22;49084;48.204;16.202;2023-08-06T02:21:32;14.80;99.90
62991;DHT22;49084;48.204;16.202;2023-08-06T02:23:57;14.80;99.90
62991;DHT22;49084;48.204;16.202;2023-08-06T02:26:23;14.80;99.90
62991;DHT22;49084;48.204;16.202;2023-08-06T02:28:48;14.80;99.90
62991;DHT22;49084;48.204;16.202;2023-08-06T02:31:14;14.80;99.90
62991;DHT22;49084;48.204;16.202;2023-08-06T02:33:40;14.80;99.90
62991;DHT22;49084;48.204;16.202;2023-08-06T02:36:05;14.80;99.90
62991;DHT22;49084;48.204;16.202;2023-08-06T02:38:32;14.80;99.90
62991;DHT22;49084;48.204;16.202;2023-08-06T02:40:57;14.80;99.90
62991;DHT22;49084;48.204;16.202;2023-08-06T02:43:23;14.80;99.90
62991;DHT22;49084;48.204;16.202;2023-08-06T02:45:49;14.80;99.90
62991;DHT22;49084;48.204;16.202;2023-08-06T02:48:15;14.80;99.90
62991;DHT22;49084;48.204;16.202;2023-08-06T02:50:41;14.80;99.90
62991;DHT22;49084;48.204;16.202;2023-08-06T02:53:09;14.80;99.90
62991;DHT22;49084;48.204;16.202;2023-08-06T02:55:35;14.90;99.90
62991;DHT22;49084;48.204;16.202;2023-08-06T02:58:01;14.80;99.90
62991;DHT22;49084;48.204;16.202;2023-08-06T03:00:27;14.90;99.90
62991;DHT22;49084;48.204;16.202;2023-08-06T03:02:53;14.90;99.90
62991;DHT22;49084;48.204;16.202;2023-08-06T03:05:19;14.90;99.90
62991;DHT22;49084;48.204;16.202;2023-08-06T03:07:45;14.90;99.90
62991;DHT22;49084;48.204;16.202;2023-08-06T03:10:10;14.90;99.90
62991;DHT22;49084;48.204;16.202;2023-08-06T03:12:36;15.00;99.90
62991;DHT22;49084;48.204;16.202;2023-08-06T03:15:02;15.00;99.90
62991;DHT22;49084;48.204;16.202;2023-08-06T03:17:27;15.00;99.90
62991;DHT22;49084;48.204;16.202;2023-08-06T03:19:53;15.10;99.90
62991;DHT22;49084;48.204;16.202;2023-08-06T03:22:19;15.10;99.90
62991;DHT22;49084;48.204;16.202;2023-08-06T03:24:44;15.10;99.90
62991;DHT22;49084;48.204;16.202;2023-08-06T03:27:10;15.10;99.90
62991;DHT22;49084;48.204;16.202;2023-08-06T03:29:35;15.10;99.90
62991;DHT22;49084;48.204;16.202;2023-08-06T03:32:01;15.10;99.90
62991;DHT22;49084;48.204;16.202;2023-08-06T03:34:27;15.20;99.90
62991;DHT22;49084;48.204;16.202;2023-08-06T03:36:52;15.20;99.90
62991;DHT22;49084;48.204;16.202;2023-08-06T03:39:18;15.10;99.90
62991;DHT22;49084;48.204;16.202;2023-08-06T03:41:43;15.20;99.90
62991;DHT22;49084;48.204;16.202;2023-08-06T03:44:09;15.20;99.90
62991;DHT22;49084;48.204;16.202;2023-08-06T03:46:34;15.20;99.90
62991;DHT22;49084;48.204;16.202;2023-08-06T03:49:00;15.20;99.90
62991;DHT22;49084;48.204;16.202;2023-08-06T03:51:26;15.30;99.90
62991;DHT22;49084;48.204;16.202;2023-08-06T03:53:52;15.30;99.90
62991;DHT22;49084;48.204;16.202;2023-08-06T03:56:17;15.30;99.90
62991;DHT22;49084;48.204;16.202;2023-08-06T03:58:43;15.30;99.90
62991;DHT22;49084;48.204;16.202;2023-08-06T04:01:08;15.20;99.90
62991;DHT22;49084;48.204;16.202;2023-08-06T04:03:34;15.30;99.90
62991;DHT22;49084;48.204;16.202;2023-08-06T04:06:04;15.30;99.90
62991;DHT22;49084;48.204;16.202;2023-08-06T04:08:30;15.30;99.90
62991;DHT22;49084;48.204;16.202;2023-08-06T04:10:55;15.30;99.90
62991;DHT22;49084;48.204;16.202;2023-08-06T04:13:21;15.30;99.90
62991;DHT22;49084;48.204;16.202;2023-08-06T04:15:47;15.30;99.90
62991;DHT22;49084;48.204;16.202;2023-08-06T04:18:13;15.30;99.90
62991;DHT22;49084;48.204;16.202;2023-08-06T04:20:45;15.20;99.90
62991;DHT22;49084;48.204;16.202;2023-08-06T04:23:11;15.30;99.90
62991;DHT22;49084;48.204;16.202;2023-08-06T04:25:37;15.30;99.90
62991;DHT22;49084;48.204;16.202;2023-08-06T04:28:03;15.30;99.90
62991;DHT22;49084;48.204;16.202;2023-08-06T04:30:29;15.30;99.90
62991;DHT22;49084;48.204;16.202;2023-08-06T04:32:56;15.30;99.90
62991;DHT22;49084;48.204;16.202;2023-08-06T04:35:22;15.40;99.90
62991;DHT22;49084;48.204;16.202;2023-08-06T04:37:47;15.40;99.90
62991;DHT22;49084;48.204;16.202;2023-08-06T04:40:13;15.40;99.90
62991;DHT22;49084;48.204;16.202;2023-08-06T04:42:39;15.40;99.90
62991;DHT22;49084;48.204;16.202;2023-08-06T04:45:05;15.40;99.90
62991;DHT22;49084;48.204;16.202;2023-08-06T04:47:30;15.40;99.90
62991;DHT22;49084;48.204;16.202;2023-08-06T04:49:56;15.40;99.90
62991;DHT22;49084;48.204;16.202;2023-08-06T04:52:22;15.40;99.90
62991;DHT22;49084;48.204;16.202;2023-08-06T04:54:47;15.40;99.90
62991;DHT22;49084;48.204;16.202;2023-08-06T04:57:13;15.50;99.90
62991;DHT22;49084;48.204;16.202;2023-08-06T04:59:39;15.50;99.90
62991;DHT22;49084;48.204;16.202;2023-08-06T05:02:05;15.50;99.90
62991;DHT22;49084;48.204;16.202;2023-08-06T05:04:30;15.50;99.90
62991;DHT22;49084;48.204;16.202;2023-08-06T05:06:56;15.50;99.90
62991;DHT22;49084;48.204;16.202;2023-08-06T05:09:21;15.50;99.90
62991;DHT22;49084;48.204;16.202;2023-08-06T05:11:47;15.50;99.90
62991;DHT22;49084;48.204;16.202;2023-08-06T05:14:13;15.50;99.90
62991;DHT22;49084;48.204;16.202;2023-08-06T05:16:39;15.50;99.90
62991;DHT22;49084;48.204;16.202;2023-08-06T05:19:04;15.50;99.90
62991;DHT22;49084;48.204;16.202;2023-08-06T05:21:30;15.50;99.90
62991;DHT22;49084;48.204;16.202;2023-08-06T05:23:56;15.60;99.90
62991;DHT22;49084;48.204;16.202;2023-08-06T05:26:21;15.60;99.90
62991;DHT22;49084;48.204;16.202;2023-08-06T05:28:47;15.50;99.90
62991;DHT22;49084;48.204;16.202;2023-08-06T05:31:13;15.60;99.90
62991;DHT22;49084;48.204;16.202;2023-08-06T05:33:38;15.60;99.90
62991;DHT22;49084;48.204;16.202;2023-08-06T05:36:04;15.60;99.90
62991;DHT22;49084;48.204;16.202;2023-08-06T05:38:30;15.60;99.90
62991;DHT22;49084;48.204;16.202;2023-08-06T05:40:56;15.60;99.90
62991;DHT22;49084;48.204;16.202;2023-08-06T05:43:22;15.70;99.90
62991;DHT22;49084;48.204;16.202;2023-08-06T05:45:49;15.70;99.90
62991;DHT22;49084;48.204;16.202;2023-08-06T05:48:15;15.70;99.90
62991;DHT22;49084;48.204;16.202;2023-08-06T05:50:41;15.80;99.90
62991;DHT22;49084;48.204;16.202;2023-08-06T05:53:07;15.90;99.90
62991;DHT22;49084;48.204;16.202;2023-08-06T05:55:33;15.90;99.90
62991;DHT22;49084;48.204;16.202;2023-08-06T05:57:59;15.90;99.90
62991;DHT22;49084;48.204;16.202;2023-08-06T06:00:25;15.90;99.90
62991;DHT22;49084;48.204;16.202;2023-08-06T06:02:50;16.10;99.90
62991;DHT22;49084;48.204;16.202;2023-08-06T06:05:16;16.40;99.90
62991;DHT22;49084;48.204;16.202;2023-08-06T06:07:42;16.50;99.90
62991;DHT22;49084;48.204;16.202;2023-08-06T06:10:08;16.60;99.90
62991;DHT22;49084;48.204;16.202;2023-08-06T06:12:33;16.70;99.90
62991;DHT22;49084;48.204;16.202;2023-08-06T06:14:59;16.80;99.90
62991;DHT22;49084;48.204;16.202;2023-08-06T06:17:26;16.90;99.90
62991;DHT22;49084;48.204;16.202;2023-08-06T06:19:52;16.80;99.90
62991;DHT22;49084;48.204;16.202;2023-08-06T06:22:18;16.80;99.90
62991;DHT22;49084;48.204;16.202;2023-08-06T06:24:43;16.90;99.90
62991;DHT22;49084;48.204;16.202;2023-08-06T06:27:09;17.00;99.90
62991;DHT22;49084;48.204;16.202;2023-08-06T06:29:34;17.10;99.90
62991;DHT22;49084;48.204;16.202;2023-08-06T06:32:00;17.10;99.90
62991;DHT22;49084;48.204;16.202;2023-08-06T06:34:26;17.10;99.90
62991;DHT22;49084;48.204;16.202;2023-08-06T06:36:51;17.10;99.90
62991;DHT22;49084;48.204;16.202;2023-08-06T06:39:17;17.00;99.90
62991;DHT22;49084;48.204;16.202;2023-08-06T06:41:43;17.00;99.90
62991;DHT22;49084;48.204;16.202;2023-08-06T06:44:09;17.10;99.90
62991;DHT22;49084;48.204;16.202;2023-08-06T06:46:35;17.10;99.90
62991;DHT22;49084;48.204;16.202;2023-08-06T06:49:00;16.90;99.90
62991;DHT22;49084;48.204;16.202;2023-08-06T06:51:26;16.90;99.90
62991;DHT22;49084;48.204;16.202;2023-08-06T06:53:52;16.90;99.90
62991;DHT22;49084;48.204;16.202;2023-08-06T06:56:17;16.80;99.90
62991;DHT22;49084;48.204;16.202;2023-08-06T06:58:43;16.80;99.90
62991;DHT22;49084;48.204;16.202;2023-08-06T07:01:09;16.70;99.90
62991;DHT22;49084;48.204;16.202;2023-08-06T07:03:36;16.60;99.90
62991;DHT22;49084;48.204;16.202;2023-08-06T07:06:01;16.50;99.90
62991;DHT22;49084;48.204;16.202;2023-08-06T07:08:27;16.40;99.90
62991;DHT22;49084;48.204;16.202;2023-08-06T07:11:03;16.40;99.90
62991;DHT22;49084;48.204;16.202;2023-08-06T07:13:29;16.40;99.90
62991;DHT22;49084;48.204;16.202;2023-08-06T07:15:55;16.40;99.90
62991;DHT22;49084;48.204;16.202;2023-08-06T07:18:21;16.40;99.90
62991;DHT22;49084;48.204;16.202;2023-08-06T07:20:54;16.30;99.90
62991;DHT22;49084;48.204;16.202;2023-08-06T07:23:21;16.40;99.90
62991;DHT22;49084;48.204;16.202;2023-08-06T07:25:48;16.50;99.90
62991;DHT22;49084;48.204;16.202;2023-08-06T07:28:14;16.60;99.90
62991;DHT22;49084;48.204;16.202;2023-08-06T07:30:41;16.60;99.90
62991;DHT22;49084;48.204;16.202;2023-08-06T07:33:07;16.70;99.90
62991;DHT22;49084;48.204;16.202;2023-08-06T07:35:33;16.70;99.90
62991;DHT22;49084;48.204;16.202;2023-08-06T07:37:58;16.70;99.90
62991;DHT22;49084;48.204;16.202;2023-08-06T07:40:24;16.70;99.90
62991;DHT22;49084;48.204;16.202;2023-08-06T07:42:50;16.80;99.90
62991;DHT22;49084;48.204;16.202;2023-08-06T07:45:16;16.70;99.90
62991;DHT22;49084;48.204;16.202;2023-08-06T07:47:41;16.80;99.90
62991;DHT22;49084;48.204;16.202;2023-08-06T07:50:08;16.70;99.90
62991;DHT22;49084;48.204;16.202;2023-08-06T07:52:34;16.70;99.90
62991;DHT22;49084;48.204;16.202;2023-08-06T07:55:00;16.80;99.90
62991;DHT22;49084;48.204;16.202;2023-08-06T07:57:27;16.80;99.90
62991;DHT22;49084;48.204;16.202;2023-08-06T07:59:52;16.80;99.90
62991;DHT22;49084;48.204;16.202;2023-08-06T08:02:19;16.70;99.90
62991;DHT22;49084;48.204;16.202;2023-08-06T08:04:45;16.60;99.90
62991;DHT22;49084;48.204;16.202;2023-08-06T08:07:12;16.60;99.90
62991;DHT22;49084;48.204;16.202;2023-08-06T08:09:38;16.70;99.90
62991;DHT22;49084;48.204;16.202;2023-08-06T08:12:04;16.70;99.90
62991;DHT22;49084;48.204;16.202;2023-08-06T08:14:30;16.80;99.90
62991;DHT22;49084;48.204;16.202;2023-08-06T08:17:01;16.80;99.90
62991;DHT22;49084;48.204;16.202;2023-08-06T08:19:28;16.90;99.90
62991;DHT22;49084;48.204;16.202;2023-08-06T08:21:53;17.00;99.90
62991;DHT22;49084;48.204;16.202;2023-08-06T08:24:20;16.90;99.90
62991;DHT22;49084;48.204;16.202;2023-08-06T08:26:46;16.90;99.90
62991;DHT22;49084;48.204;16.202;2023-08-06T08:29:12;16.80;99.90
62991;DHT22;49084;48.204;16.202;2023-08-06T08:31:38;16.80;99.90
62991;DHT22;49084;48.204;16.202;2023-08-06T08:34:05;16.70;99.90
62991;DHT22;49084;48.204;16.202;2023-08-06T08:36:31;16.70;99.90
62991;DHT22;49084;48.204;16.202;2023-08-06T08:38:57;16.70;99.90
62991;DHT22;49084;48.204;16.202;2023-08-06T08:41:23;16.70;99.90
62991;DHT22;49084;48.204;16.202;2023-08-06T08:43:50;16.80;99.90
62991;DHT22;49084;48.204;16.202;2023-08-06T08:46:19;16.90;99.90
62991;DHT22;49084;48.204;16.202;2023-08-06T08:48:45;16.80;99.90
62991;DHT22;49084;48.204;16.202;2023-08-06T08:51:11;16.80;99.90
62991;DHT22;49084;48.204;16.202;2023-08-06T08:53:39;16.70;99.90
62991;DHT22;49084;48.204;16.202;2023-08-06T08:56:05;16.60;99.90
62991;DHT22;49084;48.204;16.202;2023-08-06T08:58:32;16.60;99.90
62991;DHT22;49084;48.204;16.202;2023-08-06T09:00:58;16.60;99.90
62991;DHT22;49084;48.204;16.202;2023-08-06T09:03:24;16.60;99.90
62991;DHT22;49084;48.204;16.202;2023-08-06T09:05:53;16.60;99.90
62991;DHT22;49084;48.204;16.202;2023-08-06T09:08:21;16.50;99.90
62991;DHT22;49084;48.204;16.202;2023-08-06T09:10:51;16.50;99.90
62991;DHT22;49084;48.204;16.202;2023-08-06T09:13:17;16.60;99.90
62991;DHT22;49084;48.204;16.202;2023-08-06T09:15:44;16.50;99.90
62991;DHT22;49084;48.204;16.202;2023-08-06T09:18:10;16.30;99.90
62991;DHT22;49084;48.204;16.202;2023-08-06T09:20:40;16.20;99.90
62991;DHT22;49084;48.204;16.202;2023-08-06T09:23:10;16.00;99.90
62991;DHT22;49084;48.204;16.202;2023-08-06T09:25:38;15.90;99.90
62991;DHT22;49084;48.204;16.202;2023-08-06T09:28:05;15.80;99.90
62991;DHT22;49084;48.204;16.202;2023-08-06T09:30:31;15.70;99.90
62991;DHT22;49084;48.204;16.202;2023-08-06T09:32:58;15.60;99.90
62991;DHT22;49084;48.204;16.202;2023-08-06T09:35:23;15.50;99.90
62991;DHT22;49084;48.204;16.202;2023-08-06T09:37:49;15.40;99.90
62991;DHT22;49084;48.204;16.202;2023-08-06T09:40:31;15.40;99.90
62991;DHT22;49084;48.204;16.202;2023-08-06T09:42:57;15.30;99.90
62991;DHT22;49084;48.204;16.202;2023-08-06T09:45:30;15.30;99.90
62991;DHT22;49084;48.204;16.202;2023-08-06T09:47:56;15.20;99.90
62991;DHT22;49084;48.204;16.202;2023-08-06T09:50:23;15.20;99.90
62991;DHT22;49084;48.204;16.202;2023-08-06T09:52:52;15.30;99.90
62991;DHT22;49084;48.204;16.202;2023-08-06T09:55:19;15.30;99.90
62991;DHT22;49084;48.204;16.202;2023-08-06T09:57:46;15.30;99.90
62991;DHT22;49084;48.204;16.202;2023-08-06T10:00:12;15.40;99.90
62991;DHT22;49084;48.204;16.202;2023-08-06T10:02:39;15.50;99.90
62991;DHT22;49084;48.204;16.202;2023-08-06T10:05:09;15.60;99.90
62991;DHT22;49084;48.204;16.202;2023-08-06T10:07:35;15.60;99.90
62991;DHT22;49084;48.204;16.202;2023-08-06T10:10:02;15.80;99.90
62991;DHT22;49084;48.204;16.202;2023-08-06T10:12:34;15.80;99.90
62991;DHT22;49084;48.204;16.202;2023-08-06T10:15:04;15.80;99.90
62991;DHT22;49084;48.204;16.202;2023-08-06T10:17:32;15.90;99.90
62991;DHT22;49084;48.204;16.202;2023-08-06T10:19:59;16.00;99.90
62991;DHT22;49084;48.204;16.202;2023-08-06T10:22:24;16.10;99.90
62991;DHT22;49084;48.204;16.202;2023-08-06T10:24:54;16.30;99.90
62991;DHT22;49084;48.204;16.202;2023-08-06T10:30:41;16.60;99.90
62991;DHT22;49084;48.204;16.202;2023-08-06T10:33:06;16.90;99.90
62991;DHT22;49084;48.204;16.202;2023-08-06T10:38:15;16.90;99.90
62991;DHT22;49084;48.204;16.202;2023-08-06T10:43:29;17.10;99.90
62991;DHT22;49084;48.204;16.202;2023-08-06T10:45:55;17.20;99.90
62991;DHT22;49084;48.204;16.202;2023-08-06T10:51:00;17.60;99.90
62991;DHT22;49084;48.204;16.202;2023-08-06T10:53:27;17.70;99.90
62991;DHT22;49084;48.204;16.202;2023-08-06T10:55:52;17.70;99.90
62991;DHT22;49084;48.204;16.202;2023-08-06T10:58:18;17.70;99.90
62991;DHT22;49084;48.204;16.202;2023-08-06T11:00:43;17.70;99.90
62991;DHT22;49084;48.204;16.202;2023-08-06T11:03:09;17.80;99.90
62991;DHT22;49084;48.204;16.202;2023-08-06T11:05:39;17.80;99.90
62991;DHT22;49084;48.204;16.202;2023-08-06T11:08:04;17.90;99.90
62991;DHT22;49084;48.204;16.202;2023-08-06T11:10:33;17.80;99.90
62991;DHT22;49084;48.204;16.202;2023-08-06T11:13:05;17.90;99.90
62991;DHT22;49084;48.204;16.202;2023-08-06T11:15:33;17.70;99.90
62991;DHT22;49084;48.204;16.202;2023-08-06T11:17:58;17.50;99.90
62991;DHT22;49084;48.204;16.202;2023-08-06T11:20:24;17.40;99.90
62991;DHT22;49084;48.204;16.202;2023-08-06T11:22:50;17.40;99.90
62991;DHT22;49084;48.204;16.202;2023-08-06T11:25:16;17.20;99.90
62991;DHT22;49084;48.204;16.202;2023-08-06T11:27:41;17.00;99.90
62991;DHT22;49084;48.204;16.202;2023-08-06T11:30:07;17.00;99.90
62991;DHT22;49084;48.204;16.202;2023-08-06T11:32:45;16.90;99.90
62991;DHT22;49084;48.204;16.202;2023-08-06T11:35:11;16.70;99.90
62991;DHT22;49084;48.204;16.202;2023-08-06T11:37:39;16.50;99.90
62991;DHT22;49084;48.204;16.202;2023-08-06T11:40:09;16.40;99.90
62991;DHT22;49084;48.204;16.202;2023-08-06T11:42:36;16.40;99.90
62991;DHT22;49084;48.204;16.202;2023-08-06T11:45:03;16.40;99.90
62991;DHT22;49084;48.204;16.202;2023-08-06T11:47:30;16.30;99.90
62991;DHT22;49084;48.204;16.202;2023-08-06T11:49:55;16.20;99.90
62991;DHT22;49084;48.204;16.202;2023-08-06T11:52:25;16.10;99.90
62991;DHT22;49084;48.204;16.202;2023-08-06T11:55:11;16.00;99.90
62991;DHT22;49084;48.204;16.202;2023-08-06T11:57:44;15.90;99.90
62991;DHT22;49084;48.204;16.202;2023-08-06T12:00:12;15.90;99.90
62991;DHT22;49084;48.204;16.202;2023-08-06T12:02:41;15.90;99.90
62991;DHT22;49084;48.204;16.202;2023-08-06T12:05:17;15.90;99.90
62991;DHT22;49084;48.204;16.202;2023-08-06T12:07:52;15.90;99.90
62991;DHT22;49084;48.204;16.202;2023-08-06T12:10:19;16.00;99.90
62991;DHT22;49084;48.204;16.202;2023-08-06T12:12:46;16.10;99.90
62991;DHT22;49084;48.204;16.202;2023-08-06T12:15:12;16.20;99.90
62991;DHT22;49084;48.204;16.202;2023-08-06T12:17:38;16.30;99.90
62991;DHT22;49084;48.204;16.202;2023-08-06T12:20:05;16.50;99.90
62991;DHT22;49084;48.204;16.202;2023-08-06T12:22:32;16.50;99.90
62991;DHT22;49084;48.204;16.202;2023-08-06T12:25:00;16.60;99.90
62991;DHT22;49084;48.204;16.202;2023-08-06T12:27:26;16.60;99.90
62991;DHT22;49084;48.204;16.202;2023-08-06T12:29:52;16.60;99.90
62991;DHT22;49084;48.204;16.202;2023-08-06T12:32:17;16.70;99.90
62991;DHT22;49084;48.204;16.202;2023-08-06T12:34:44;16.70;99.90
62991;DHT22;49084;48.204;16.202;2023-08-06T12:37:10;16.90;99.90
62991;DHT22;49084;48.204;16.202;2023-08-06T12:39:37;16.90;99.90
62991;DHT22;49084;48.204;16.202;2023-08-06T12:42:04;16.80;99.90
62991;DHT22;49084;48.204;16.202;2023-08-06T12:44:31;16.90;99.90
62991;DHT22;49084;48.204;16.202;2023-08-06T12:46:56;16.90;99.90
62991;DHT22;49084;48.204;16.202;2023-08-06T12:49:23;16.90;99.90
62991;DHT22;49084;48.204;16.202;2023-08-06T12:51:50;17.00;99.90
62991;DHT22;49084;48.204;16.202;2023-08-06T12:54:16;17.10;99.90
62991;DHT22;49084;48.204;16.202;2023-08-06T12:56:43;17.20;99.90
62991;DHT22;49084;48.204;16.202;2023-08-06T12:59:09;17.20;99.90
62991;DHT22;49084;48.204;16.202;2023-08-06T13:01:36;17.30;99.90
62991;DHT22;49084;48.204;16.202;2023-08-06T13:04:03;17.40;99.90
62991;DHT22;49084;48.204;16.202;2023-08-06T13:06:29;17.40;99.90
62991;DHT22;49084;48.204;16.202;2023-08-06T13:08:57;17.50;99.90
62991;DHT22;49084;48.204;16.202;2023-08-06T13:11:24;17.60;99.90
62991;DHT22;49084;48.204;16.202;2023-08-06T13:13:50;17.70;99.90
62991;DHT22;49084;48.204;16.202;2023-08-06T13:16:17;17.80;99.90
62991;DHT22;49084;48.204;16.202;2023-08-06T13:18:43;17.80;99.90
62991;DHT22;49084;48.204;16.202;2023-08-06T13:21:10;17.90;99.90
62991;DHT22;49084;48.204;16.202;2023-08-06T13:23:36;18.00;99.90
62991;DHT22;49084;48.204;16.202;2023-08-06T13:26:02;18.20;99.90
62991;DHT22;49084;48.204;16.202;2023-08-06T13:28:30;18.30;99.90
62991;DHT22;49084;48.204;16.202;2023-08-06T13:30:56;18.50;99.90
62991;DHT22;49084;48.204;16.202;2023-08-06T13:33:23;18.60;99.90
62991;DHT22;49084;48.204;16.202;2023-08-06T13:35:51;18.80;99.90
62991;DHT22;49084;48.204;16.202;2023-08-06T13:38:17;18.90;99.90
62991;DHT22;49084;48.204;16.202;2023-08-06T13:40:43;19.00;99.90
62991;DHT22;49084;48.204;16.202;2023-08-06T13:43:10;19.10;99.90
62991;DHT22;49084;48.204;16.202;2023-08-06T13:45:36;19.10;99.90
62991;DHT22;49084;48.204;16.202;2023-08-06T13:48:04;19.20;99.90
62991;DHT22;49084;48.204;16.202;2023-08-06T13:50:30;19.20;99.90
62991;DHT22;49084;48.204;16.202;2023-08-06T13:52:56;19.10;99.90
62991;DHT22;49084;48.204;16.202;2023-08-06T13:55:23;19.00;99.90
62991;DHT22;49084;48.204;16.202;2023-08-06T13:57:49;19.00;99.90
62991;DHT22;49084;48.204;16.202;2023-08-06T14:00:16;18.90;99.90
62991;DHT22;49084;48.204;16.202;2023-08-06T14:02:43;18.90;99.90
62991;DHT22;49084;48.204;16.202;2023-08-06T14:05:11;18.90;99.90
62991;DHT22;49084;48.204;16.202;2023-08-06T14:07:38;19.10;99.90
62991;DHT22;49084;48.204;16.202;2023-08-06T14:10:04;19.20;99.90
62991;DHT22;49084;48.204;16.202;2023-08-06T14:12:31;19.30;99.90
62991;DHT22;49084;48.204;16.202;2023-08-06T14:14:58;19.20;99.90
62991;DHT22;49084;48.204;16.202;2023-08-06T14:17:25;19.20;99.90
62991;DHT22;49084;48.204;16.202;2023-08-06T14:19:51;19.00;99.90
62991;DHT22;49084;48.204;16.202;2023-08-06T14:22:17;18.90;99.90
62991;DHT22;49084;48.204;16.202;2023-08-06T14:24:44;18.80;99.90
62991;DHT22;49084;48.204;16.202;2023-08-06T14:27:10;18.70;99.90
62991;DHT22;49084;48.204;16.202;2023-08-06T14:29:36;18.60;99.90
62991;DHT22;49084;48.204;16.202;2023-08-06T14:32:03;18.40;99.90
62991;DHT22;49084;48.204;16.202;2023-08-06T14:34:29;18.60;99.90
62991;DHT22;49084;48.204;16.202;2023-08-06T14:36:56;18.70;99.90
62991;DHT22;49084;48.204;16.202;2023-08-06T14:39:22;18.70;99.90
62991;DHT22;49084;48.204;16.202;2023-08-06T14:41:49;18.70;99.90
62991;DHT22;49084;48.204;16.202;2023-08-06T14:44:15;19.00;99.90
62991;DHT22;49084;48.204;16.202;2023-08-06T14:46:42;19.10;99.90
62991;DHT22;49084;48.204;16.202;2023-08-06T14:49:08;19.10;99.90
62991;DHT22;49084;48.204;16.202;2023-08-06T14:51:34;19.00;99.90
62991;DHT22;49084;48.204;16.202;2023-08-06T14:54:01;18.80;99.90
62991;DHT22;49084;48.204;16.202;2023-08-06T14:56:27;18.80;99.90
62991;DHT22;49084;48.204;16.202;2023-08-06T14:58:53;18.70;99.90
62991;DHT22;49084;48.204;16.202;2023-08-06T15:01:20;18.70;99.90
62991;DHT22;49084;48.204;16.202;2023-08-06T15:03:48;18.50;99.90
62991;DHT22;49084;48.204;16.202;2023-08-06T15:06:16;18.40;99.90
62991;DHT22;49084;48.204;16.202;2023-08-06T15:08:42;18.30;99.90
62991;DHT22;49084;48.204;16.202;2023-08-06T15:11:12;18.20;99.90
62991;DHT22;49084;48.204;16.202;2023-08-06T15:13:39;18.00;99.90
62991;DHT22;49084;48.204;16.202;2023-08-06T15:16:05;18.00;99.90
62991;DHT22;49084;48.204;16.202;2023-08-06T15:18:32;18.00;99.90
62991;DHT22;49084;48.204;16.202;2023-08-06T15:21:00;18.10;99.90
62991;DHT22;49084;48.204;16.202;2023-08-06T15:23:26;18.20;99.90
62991;DHT22;49084;48.204;16.202;2023-08-06T15:25:54;18.20;99.90